createdAt,value
2024-02-04T00:07:27.566Z,100.00
2024-02-04T00:17:31.915Z,100.00
2024-02-04T00:27:35.302Z,100.00
2024-02-04T00:37:38.863Z,100.00
2024-02-04T00:47:42.383Z,100.00
2024-02-04T00:57:45.996Z,100.00
2024-02-04T01:07:49.493Z,100.00
2024-02-04T01:17:56.383Z,100.00
2024-02-04T01:28:03.499Z,99.99
2024-02-04T01:38:07.205Z,99.86
2024-02-04T01:48:11.162Z,99.62
2024-02-04T01:58:18.657Z,99.43
2024-02-04T02:08:22.034Z,99.18
2024-02-04T02:18:28.772Z,99.00
2024-02-04T02:28:32.965Z,98.84
2024-02-04T02:38:44.994Z,98.70
2024-02-04T02:48:48.733Z,98.53
2024-02-04T02:58:52.519Z,98.26
2024-02-04T03:08:58.447Z,98.31
2024-02-04T03:19:05.824Z,98.20
2024-02-04T03:29:09.752Z,98.07
2024-02-04T03:39:12.571Z,97.73
2024-02-04T03:49:16.342Z,97.58
2024-02-04T03:59:20.051Z,97.50
2024-02-04T04:09:23.944Z,97.42
2024-02-04T04:19:27.065Z,97.33
2024-02-04T04:29:34.113Z,97.02
2024-02-04T04:39:37.693Z,96.96
2024-02-04T04:49:42.307Z,96.50
2024-02-04T04:59:48.375Z,96.38
2024-02-04T05:09:55.511Z,96.16
2024-02-04T05:19:58.945Z,96.20
2024-02-04T05:30:03.619Z,96.24
2024-02-04T05:40:09.232Z,96.45
2024-02-04T05:50:16.128Z,96.66
2024-02-04T06:00:19.611Z,96.66
2024-02-04T06:10:23.031Z,96.94
2024-02-04T06:20:25.876Z,96.68
2024-02-04T06:30:33.469Z,96.69
2024-02-04T06:40:36.966Z,96.91
2024-02-04T06:51:04.780Z,97.09
2024-02-04T07:01:09.061Z,97.19
2024-02-04T07:11:12.733Z,97.36
2024-02-04T07:21:19.751Z,97.06
2024-02-04T07:31:22.574Z,96.50
2024-02-04T07:41:25.196Z,96.03
2024-02-04T07:51:28.885Z,95.65
2024-02-04T08:01:34.656Z,95.69
2024-02-04T08:11:38.387Z,95.93
2024-02-04T08:21:41.354Z,95.64
2024-02-04T08:31:44.914Z,94.53
2024-02-04T08:41:48.393Z,93.07
2024-02-04T08:51:52.337Z,92.93
2024-02-04T09:01:56.417Z,92.85
2024-02-04T09:12:00.234Z,92.17
2024-02-04T09:22:04.242Z,91.40
2024-02-04T09:32:06.667Z,89.54
2024-02-04T09:42:10.860Z,88.11
2024-02-04T09:52:14.390Z,86.69
2024-02-04T10:02:21.809Z,85.50
2024-02-04T10:12:25.031Z,84.71
2024-02-04T10:22:28.914Z,83.14
2024-02-04T10:32:32.295Z,81.31
2024-02-04T10:42:38.247Z,79.28
2024-02-04T10:52:46.806Z,78.54
2024-02-04T11:02:50.391Z,78.17
2024-02-04T11:12:55.142Z,76.42
2024-02-04T11:23:15.227Z,74.55
2024-02-04T11:33:20.188Z,74.51
2024-02-04T11:43:25.392Z,73.48
2024-02-04T11:53:33.078Z,73.70
2024-02-04T12:03:37.918Z,73.58
2024-02-04T12:13:42.875Z,74.23
2024-02-04T12:23:50.811Z,74.92
2024-02-04T12:33:58.604Z,75.44
2024-02-04T12:44:02.482Z,75.84
2024-02-04T12:54:09.863Z,76.90
2024-02-04T13:04:17.968Z,77.31
2024-02-04T13:14:22.757Z,78.10
2024-02-04T13:24:27.059Z,78.96
2024-02-04T13:34:30.525Z,79.45
2024-02-04T13:54:37.261Z,80.54
2024-02-04T14:04:41.278Z,81.14
2024-02-04T14:14:58.798Z,81.68
2024-02-04T14:25:02.598Z,82.23
2024-02-04T14:35:08.926Z,82.83
2024-02-04T14:45:13.244Z,83.34
2024-02-04T14:55:19.955Z,83.58
2024-02-04T15:05:24.569Z,84.16
2024-02-04T15:15:32.757Z,84.67
2024-02-04T15:25:36.352Z,85.35
2024-02-04T15:35:40.968Z,85.82
2024-02-04T15:45:45.029Z,86.30
2024-02-04T15:55:47.393Z,87.24
2024-02-04T16:06:00.065Z,88.10
2024-02-04T16:16:08.868Z,88.79
2024-02-04T16:26:11.734Z,88.68
2024-02-04T16:36:15.271Z,88.25
2024-02-04T16:46:19.307Z,87.52
2024-02-04T16:56:26.553Z,87.54
2024-02-04T17:06:29.280Z,87.36
2024-02-04T17:16:32.412Z,87.18
2024-02-04T17:26:37.305Z,86.74
2024-02-04T17:36:40.824Z,85.83
2024-02-04T17:46:47.039Z,84.93
2024-02-04T17:56:49.409Z,83.57
2024-02-04T18:06:55.965Z,81.93
2024-02-04T18:17:03.438Z,81.19
2024-02-04T18:27:07.342Z,79.63
2024-02-04T18:37:10.143Z,78.83
2024-02-04T18:47:13.709Z,78.91
2024-02-04T18:57:17.392Z,79.09
2024-02-04T19:17:41.486Z,79.09
2024-02-04T19:27:49.179Z,79.24
2024-02-04T19:37:56.518Z,79.36
2024-02-04T19:48:00.163Z,79.71
2024-02-04T19:58:04.662Z,79.66
2024-02-04T20:08:07.888Z,79.97
2024-02-04T20:18:14.163Z,80.07
2024-02-04T20:28:17.137Z,80.25
2024-02-04T20:38:21.297Z,80.04
2024-02-04T20:48:24.361Z,79.92
2024-02-04T20:58:28.038Z,79.81
2024-02-04T21:08:34.547Z,80.03
2024-02-04T21:18:42.847Z,79.69
2024-02-04T21:28:46.902Z,79.50
2024-02-04T21:38:50.247Z,79.61
2024-02-04T21:48:56.903Z,79.44
2024-02-04T21:59:05.391Z,79.68
2024-02-04T22:09:11.309Z,80.11
2024-02-04T22:19:14.531Z,80.98
2024-02-04T22:29:18.223Z,81.67
2024-02-04T22:39:21.387Z,82.06
2024-02-04T22:49:24.398Z,83.02
2024-02-04T23:09:33.025Z,84.39
2024-02-04T23:19:40.601Z,85.12
2024-02-04T23:29:44.995Z,86.14
2024-02-04T23:39:48.120Z,86.93
2024-02-04T23:49:51.633Z,88.33
2024-02-04T23:59:54.841Z,88.58
